Time;durP1;ratioP1;P1;durP2;ratioP2;P2;SDS_P1;SDS_P2;PMS_P1;PMS_P2;Temp;Humidity;BMP_temperature;BMP_pressure;BME280_temperature;BME280_humidity;BME280_pressure;Samples;Min_cycle;Max_cycle;Signal;HPM_P1;HPM_P2
2021/09/29 00:06:53;;;;;;;12.00;8.60;;;;;;;6.90;72.27;100302.55;473842;1191;142638;-57
2021/09/29 00:16:59;;;;;;;10.10;9.00;;;;;;;6.82;72.31;100302.84;477259;1191;141072;-58
2021/09/29 00:27:05;;;;;;;8.40;7.40;;;;;;;6.77;72.58;100301.63;477074;1190;142274;-58
2021/09/29 00:37:11;;;;;;;9.60;6.80;;;;;;;6.73;72.65;100294.80;475498;1190;142642;-56
2021/09/29 00:47:17;;;;;;;12.00;8.00;;;;;;;6.73;72.68;100292.91;464641;1191;142639;-57
2021/09/29 00:57:23;;;;;;;8.60;6.30;;;;;;;6.66;72.69;100292.80;476342;1191;142773;-57
2021/09/29 01:07:38;;;;;;;10.50;7.50;;;;;;;6.59;72.93;100289.22;477568;1191;142227;-58
2021/09/29 01:17:49;;;;;;;11.80;7.60;;;;;;;6.56;73.05;100279.58;463084;1192;146890;-57
2021/09/29 01:27:55;;;;;;;9.70;7.20;;;;;;;6.48;73.09;100270.13;477722;1191;141456;-58
2021/09/29 01:38:01;;;;;;;10.40;7.40;;;;;;;6.42;73.43;100266.00;477772;1190;141720;-59
2021/09/29 01:48:09;;;;;;;53.80;48.80;;;;;;;6.35;73.59;100263.13;477268;1190;141977;-59
2021/09/29 01:58:15;;;;;;;11.90;8.60;;;;;;;6.28;73.86;100268.41;476022;1190;141578;-59
2021/09/29 02:08:21;;;;;;;11.50;8.50;;;;;;;6.20;74.13;100272.86;477043;1190;141764;-59
2021/09/29 02:18:27;;;;;;;12.10;8.20;;;;;;;6.13;74.41;100265.96;470777;1190;141510;-57
2021/09/29 02:28:33;;;;;;;11.60;8.70;;;;;;;6.05;74.70;100266.24;477854;1190;142151;-57
2021/09/29 02:38:41;;;;;;;12.60;9.20;;;;;;;5.99;75.11;100261.40;476775;1191;142261;-57
2021/09/29 02:48:47;;;;;;;9.80;8.80;;;;;;;5.91;75.37;100256.09;477737;1191;141939;-58
2021/09/29 02:58:54;;;;;;;10.50;8.50;;;;;;;5.84;75.46;100251.65;477675;1190;141936;-58
2021/09/29 03:08:59;;;;;;;12.60;8.70;;;;;;;5.76;75.85;100253.12;471472;1190;142482;-58
2021/09/29 03:19:05;;;;;;;10.60;8.70;;;;;;;5.68;76.34;100255.62;476221;1191;142494;-58
2021/09/29 03:29:11;;;;;;;19.20;8.60;;;;;;;5.59;76.50;100246.89;470917;1190;141732;-57
2021/09/29 03:39:17;;;;;;;13.20;10.20;;;;;;;5.52;76.84;100241.91;462831;1190;141808;-58
2021/09/29 03:49:23;;;;;;;11.20;9.30;;;;;;;5.43;77.19;100240.64;465493;1190;142574;-57
2021/09/29 03:59:30;;;;;;;11.80;10.00;;;;;;;5.36;77.66;100228.87;461126;1190;143501;-57
2021/09/29 04:09:37;;;;;;;14.20;10.70;;;;;;;5.31;77.80;100225.58;477724;1190;142464;-58
2021/09/29 04:19:43;;;;;;;12.80;9.60;;;;;;;5.25;77.77;100225.05;473338;1191;142131;-58
2021/09/29 04:29:49;;;;;;;10.40;8.50;;;;;;;5.29;78.10;100222.16;461721;1191;142480;-58
2021/09/29 04:39:56;;;;;;;13.70;10.60;;;;;;;5.37;78.14;100221.39;465720;1191;143056;-57
2021/09/29 04:50:03;;;;;;;12.70;9.40;;;;;;;5.45;78.27;100208.45;475861;1191;142420;-57
2021/09/29 05:00:10;;;;;;;14.30;10.70;;;;;;;5.65;78.12;100213.01;477538;1191;141995;-58
2021/09/29 05:10:22;;;;;;;10.00;9.00;;;;;;;5.93;77.87;100212.05;462836;1190;141818;-57
2021/09/29 05:20:28;;;;;;;12.50;9.50;;;;;;;6.32;77.56;100205.16;461658;1190;142353;-57
2021/09/29 05:30:33;;;;;;;12.30;9.60;;;;;;;6.82;76.95;100205.40;459757;1193;142085;-58
2021/09/29 05:40:39;;;;;;;14.30;9.80;;;;;;;9.06;76.04;100208.97;469600;1184;143709;-58
2021/09/29 05:50:45;;;;;;;11.70;8.50;;;;;;;14.87;69.13;100206.11;476825;1191;142433;-58
2021/09/29 06:00:51;;;;;;;13.80;8.80;;;;;;;18.32;61.88;100194.02;474712;1184;143858;-59
2021/09/29 06:10:58;;;;;;;11.80;8.30;;;;;;;20.41;56.20;100183.92;466204;1190;142712;-56
2021/09/29 06:21:06;;;;;;;9.30;8.30;;;;;;;22.62;51.88;100175.30;476906;1190;141943;-61
2021/09/29 06:31:12;;;;;;;8.70;7.40;;;;;;;24.27;47.75;100162.08;467497;1190;140616;-60
2021/09/29 06:41:18;;;;;;;9.50;8.50;;;;;;;26.21;44.27;100164.15;477142;1190;142266;-62
2021/09/29 06:51:24;;;;;;;9.40;8.10;;;;;;;27.84;41.09;100161.20;477792;1191;140934;-62
2021/09/29 07:01:29;;;;;;;9.90;9.00;;;;;;;28.68;37.87;100154.10;477734;1189;142094;-61
2021/09/29 07:11:36;;;;;;;8.30;7.60;;;;;;;29.73;35.83;100140.96;476998;1190;142331;-61
2021/09/29 07:21:41;;;;;;;9.50;7.20;;;;;;;30.43;33.96;100130.46;473870;1190;145739;-60
2021/09/29 07:31:47;;;;;;;9.10;6.50;;;;;;;31.08;32.10;100129.96;470318;1190;141539;-60
2021/09/29 07:41:53;;;;;;;7.20;6.50;;;;;;;31.75;30.83;100119.77;461657;1192;141546;-60
2021/09/29 07:51:59;;;;;;;6.40;5.90;;;;;;;33.03;29.25;100116.10;477583;1191;142055;-62
2021/09/29 08:02:05;;;;;;;6.40;5.20;;;;;;;33.18;27.74;100110.09;470103;1191;143084;-61
2021/09/29 08:12:11;;;;;;;6.40;5.70;;;;;;;32.57;27.03;100102.45;477907;1190;141321;-61
2021/09/29 08:22:17;;;;;;;5.60;5.10;;;;;;;32.51;26.64;100088.35;477858;1190;141802;-61
2021/09/29 08:32:26;;;;;;;6.60;5.90;;;;;;;31.71;25.89;100071.77;472273;1190;142198;-62
2021/09/29 08:42:39;;;;;;;7.00;6.40;;;;;;;30.25;26.35;100053.48;470251;1190;142159;-62
2021/09/29 08:52:56;;;;;;;8.00;6.10;;;;;;;29.45;26.96;100036.31;474927;1190;140759;-60
2021/09/29 09:23:53;;;;;;;8.60;6.70;;;;;;;16.66;40.87;100044.66;467707;1190;142172;-60
2021/09/29 09:34:02;;;;;;;8.50;6.90;;;;;;;15.69;43.67;100044.89;475135;1190;141990;-60
2021/09/29 09:44:10;;;;;;;8.60;6.70;;;;;;;14.86;46.02;100049.59;477020;1190;145018;-57
2021/09/29 09:54:17;;;;;;;8.70;6.40;;;;;;;14.54;48.06;100035.94;477882;1188;141917;-58
2021/09/29 10:04:23;;;;;;;8.70;6.50;;;;;;;14.92;48.63;100036.48;468512;1190;149174;-57
2021/09/29 10:14:42;;;;;;;8.10;6.70;;;;;;;14.95;49.09;100044.92;459712;1192;141470;-59
2021/09/29 10:35:31;;;;;;;11.00;7.40;;;;;;;15.59;49.48;100025.77;470281;1191;142865;-61
2021/09/29 11:06:43;;;;;;;11.10;8.00;;;;;;;15.56;50.80;100005.87;477903;1190;141713;-60
2021/09/29 11:27:40;;;;;;;11.30;7.70;;;;;;;15.48;51.52;99986.16;477389;1191;140983;-59
2021/09/29 11:49:13;;;;;;;9.30;6.60;;;;;;;15.12;52.59;99967.96;477213;1190;141864;-58
2021/09/29 12:09:53;;;;;;;15.30;7.80;;;;;;;15.18;53.26;99961.16;470534;1189;141934;-58
2021/09/29 12:20:01;;;;;;;8.30;6.60;;;;;;;15.16;53.79;99952.86;465980;1190;141576;-58
2021/09/29 12:30:18;;;;;;;14.10;7.40;;;;;;;15.17;54.07;99952.76;467112;1183;141837;-56
2021/09/29 12:40:26;;;;;;;11.30;7.30;;;;;;;14.81;55.09;99956.80;465208;1177;141614;-58
2021/09/29 12:50:41;;;;;;;11.60;7.00;;;;;;;14.63;55.62;99957.52;477139;1190;142347;-59
2021/09/29 13:00:47;;;;;;;10.20;7.40;;;;;;;14.54;55.98;99956.41;477855;1190;141156;-59
2021/09/29 13:10:53;;;;;;;9.80;6.40;;;;;;;14.34;56.43;99952.95;475949;1190;141639;-58
2021/09/29 13:21:03;;;;;;;10.40;7.00;;;;;;;14.29;56.70;99938.73;476844;1191;141193;-59
2021/09/29 13:41:33;;;;;;;8.40;6.80;;;;;;;13.96;57.40;99943.95;476454;1191;142258;-59
2021/09/29 13:51:43;;;;;;;11.20;7.10;;;;;;;13.88;57.97;99933.39;477590;1191;141670;-59
2021/09/29 14:33:00;;;;;;;10.70;8.40;;;;;;;14.10;58.80;99917.23;465848;1191;142847;-58
2021/09/29 14:43:07;;;;;;;9.20;8.00;;;;;;;14.14;58.86;99914.11;457661;1191;20001698;-59
2021/09/29 14:53:12;;;;;;;12.20;8.00;;;;;;;14.02;59.15;99911.09;475213;1191;141899;-61
2021/09/29 15:03:21;;;;;;;10.30;6.80;;;;;;;13.92;59.56;99906.71;467664;1191;142018;-59
2021/09/29 15:13:29;;;;;;;13.60;8.10;;;;;;;13.87;60.06;99898.11;471213;1191;141137;-58
2021/09/29 15:23:53;;;;;;;10.40;8.00;;;;;;;13.68;60.61;99882.27;467647;1191;143331;-58
2021/09/29 15:54:55;;;;;;;11.50;9.00;;;;;;;13.23;62.28;99891.54;474211;1190;141537;-60
2021/09/29 16:05:21;;;;;;;10.20;8.50;;;;;;;13.13;62.89;99885.56;477606;1190;142913;-60
2021/09/29 16:36:35;;;;;;;13.40;10.20;;;;;;;12.97;64.23;99897.93;475470;1191;141852;-60
2021/09/29 16:46:41;;;;;;;14.80;10.20;;;;;;;12.93;64.61;99904.14;477390;1191;141832;-61
2021/09/29 16:56:47;;;;;;;14.00;10.10;;;;;;;12.91;64.86;99903.25;476622;1191;144669;-60
2021/09/29 17:06:54;;;;;;;11.80;10.10;;;;;;;12.88;65.23;99903.46;476645;1190;142832;-57
2021/09/29 17:17:00;;;;;;;15.50;11.00;;;;;;;12.90;65.36;99907.68;467101;1191;142489;-60
2021/09/29 17:27:07;;;;;;;17.60;12.60;;;;;;;12.86;65.55;99906.71;466301;1192;141887;-60
2021/09/29 17:37:23;;;;;;;20.30;12.50;;;;;;;12.83;65.92;99909.23;462663;1190;142540;-60
2021/09/29 17:57:53;;;;;;;15.90;12.30;;;;;;;12.79;66.36;99905.97;469053;1190;146325;-60
2021/09/29 18:07:59;;;;;;;21.40;13.20;;;;;;;12.79;66.63;99910.23;477791;1190;144769;-63
2021/09/29 18:18:05;;;;;;;17.90;12.40;;;;;;;12.80;66.79;99916.79;475938;1190;143634;-64
2021/09/29 18:28:12;;;;;;;16.50;11.90;;;;;;;12.80;66.93;99919.48;461117;1190;141947;-65
2021/09/29 18:38:25;;;;;;;15.60;11.60;;;;;;;12.77;67.19;99919.67;462021;1183;143192;-62
2021/09/29 18:48:53;;;;;;;17.30;11.50;;;;;;;12.71;67.49;99916.15;471535;1191;142350;-62
2021/09/29 19:09:23;;;;;;;16.50;10.90;;;;;;;12.63;68.10;99922.16;466444;1190;143719;-65
2021/09/29 19:19:29;;;;;;;14.70;11.90;;;;;;;12.50;68.34;99922.67;464366;1177;143445;-65
2021/09/29 19:29:35;;;;;;;22.00;12.70;;;;;;;12.35;68.79;99923.63;464173;1190;144211;-65
2021/09/29 19:39:42;;;;;;;20.60;12.80;;;;;;;12.18;69.40;99923.73;463829;1192;142290;-61
2021/09/29 19:49:56;;;;;;;18.70;13.40;;;;;;;12.01;69.76;99921.26;462975;1180;141191;-64
2021/09/29 20:10:29;;;;;;;19.00;13.20;;;;;;;11.63;70.85;99925.20;470586;1190;141442;-62
2021/09/29 20:20:36;;;;;;;17.80;13.30;;;;;;;11.63;71.43;99930.65;461340;1190;142089;-64
2021/09/29 20:30:45;;;;;;;17.60;13.20;;;;;;;11.76;71.47;99933.91;467460;1191;141855;-63
2021/09/29 20:51:15;;;;;;;20.60;12.30;;;;;;;11.88;71.64;99931.77;462209;1187;142165;-62
2021/09/29 21:01:22;;;;;;;16.90;12.30;;;;;;;11.83;71.73;99933.95;461710;1192;142737;-63
2021/09/29 21:11:32;;;;;;;18.30;12.30;;;;;;;11.75;71.88;99927.95;461234;1192;165695;-63
2021/09/29 21:21:38;;;;;;;17.90;13.00;;;;;;;11.70;72.13;99930.38;461482;1177;142093;-63
2021/09/29 21:31:44;;;;;;;18.60;13.00;;;;;;;11.66;72.26;99934.16;461811;1191;141989;-65
2021/09/29 21:41:59;;;;;;;18.60;12.40;;;;;;;11.61;72.38;99935.88;461633;1192;142542;-61
2021/09/29 22:02:46;;;;;;;17.30;12.10;;;;;;;11.45;72.75;99942.44;461695;1184;142160;-62
2021/09/29 22:13:18;;;;;;;16.00;13.40;;;;;;;11.38;73.00;99943.46;463367;1192;142415;-62
2021/09/29 22:23:47;;;;;;;18.90;12.70;;;;;;;11.34;73.22;99943.85;462223;1192;141863;-63
2021/09/29 23:05:28;;;;;;;18.60;13.30;;;;;;;11.39;73.66;99959.50;459754;1183;142673;-61
2021/09/29 23:36:21;;;;;;;31.30;18.20;;;;;;;11.42;74.22;99984.05;461693;1190;141866;-59
2021/09/29 23:46:27;;;;;;;21.90;15.70;;;;;;;11.53;74.19;99998.11;461497;1176;142864;-64
2021/09/29 23:56:34;;;;;;;19.90;16.00;;;;;;;11.55;74.18;99993.79;466189;1190;141929;-64
